Time;durP1;ratioP1;P1;durP2;ratioP2;P2;SDS_P1;SDS_P2;PMS_P1;PMS_P2;Temp;Humidity;BMP_temperature;BMP_pressure;BME280_temperature;BME280_humidity;BME280_pressure;Samples;Min_cycle;Max_cycle;Signal;HPM_P1;HPM_P2
2023/01/06 00:01:53;;;;;;;3.22;2.00;;;16.20;77.20;;;;;;10432215;28;20128;-60
2023/01/06 00:06:54;;;;;;;4.68;2.03;;;16.20;77.20;;;;;;10446796;28;20047;-59
2023/01/06 00:11:55;;;;;;;4.07;2.33;;;16.20;77.20;;;;;;10445492;28;20051;-59
2023/01/06 00:16:56;;;;;;;3.60;2.13;;;16.20;77.10;;;;;;10446484;28;20031;-58
2023/01/06 00:21:56;;;;;;;3.45;1.70;;;16.20;77.10;;;;;;10444663;28;20037;-59
2023/01/06 00:26:57;;;;;;;4.50;3.13;;;16.20;77.10;;;;;;10447292;28;20586;-59
2023/01/06 00:31:59;;;;;;;4.30;2.25;;;16.10;77.00;;;;;;10446232;28;20060;-59
2023/01/06 00:37:00;;;;;;;3.55;1.90;;;16.10;77.00;;;;;;10420628;28;20053;-58
2023/01/06 00:42:04;;;;;;;4.07;1.60;;;16.10;77.00;;;;;;10427917;28;20116;-59
2023/01/06 00:47:08;;;;;;;4.25;2.05;;;16.10;77.00;;;;;;10444672;28;20017;-59
2023/01/06 00:52:09;;;;;;;3.15;2.05;;;16.10;76.90;;;;;;10444710;28;20064;-61
2023/01/06 00:57:09;;;;;;;2.70;2.38;;;16.10;76.90;;;;;;10427730;28;20120;-59
2023/01/06 01:02:10;;;;;;;3.53;1.70;;;16.10;76.90;;;;;;10427497;28;20021;-59
2023/01/06 01:07:11;;;;;;;3.03;1.60;;;16.10;76.90;;;;;;10444618;28;20017;-59
2023/01/06 01:12:12;;;;;;;2.60;2.13;;;16.10;76.90;;;;;;10452179;28;20032;-60
2023/01/06 01:17:20;;;;;;;3.15;1.70;;;16.10;76.90;;;;;;10453036;28;20025;-60
2023/01/06 01:22:23;;;;;;;2.38;1.60;;;16.10;76.90;;;;;;10439579;28;20052;-59
2023/01/06 01:27:24;;;;;;;3.08;1.42;;;16.10;76.90;;;;;;10459163;28;20025;-60
2023/01/06 01:32:25;;;;;;;3.55;1.50;;;16.10;76.80;;;;;;10452236;28;20376;-59
2023/01/06 01:37:25;;;;;;;3.25;1.70;;;16.00;76.70;;;;;;10450973;28;20488;-59
2023/01/06 01:42:26;;;;;;;3.78;1.65;;;16.10;76.70;;;;;;10450898;28;20079;-60
2023/01/06 01:47:43;;;;;;;3.17;1.42;;;16.10;76.70;;;;;;10451833;28;20071;-60
2023/01/06 01:52:47;;;;;;;4.80;2.10;;;16.00;76.70;;;;;;10450683;28;20029;-59
2023/01/06 01:58:05;;;;;;;2.53;1.30;;;16.00;76.60;;;;;;10450484;28;20054;-60
2023/01/06 02:03:06;;;;;;;2.13;1.40;;;16.10;76.60;;;;;;10451419;28;20136;-59
2023/01/06 02:08:27;;;;;;;2.30;1.42;;;16.10;76.50;;;;;;10449627;28;20025;-58
2023/01/06 02:13:27;;;;;;;3.05;1.20;;;16.00;76.50;;;;;;10451038;28;20025;-59
2023/01/06 02:18:58;;;;;;;2.95;1.33;;;16.00;76.50;;;;;;10432929;28;20096;-59
2023/01/06 02:24:42;;;;;;;1.75;1.30;;;16.10;76.50;;;;;;10449064;28;20041;-60
2023/01/06 02:29:59;;;;;;;2.85;1.45;;;16.00;76.50;;;;;;10447720;28;20166;-59
2023/01/06 02:35:24;;;;;;;2.72;1.58;;;16.00;76.50;;;;;;10449915;28;20679;-59
2023/01/06 02:41:26;;;;;;;2.42;1.10;;;16.00;76.50;;;;;;10448555;28;20161;-59
2023/01/06 02:46:55;;;;;;;3.95;1.55;;;16.00;76.40;;;;;;10448770;28;20023;-59
2023/01/06 02:52:17;;;;;;;2.40;1.58;;;16.00;76.40;;;;;;10447909;28;20036;-60
2023/01/06 02:57:43;;;;;;;2.35;1.80;;;16.00;76.70;;;;;;10449513;28;20473;-59
2023/01/06 03:02:52;;;;;;;2.92;1.25;;;16.00;76.40;;;;;;10435867;28;20029;-59
2023/01/06 03:07:54;;;;;;;2.63;1.42;;;16.00;76.40;;;;;;10447397;28;20021;-59
2023/01/06 03:13:44;;;;;;;4.28;1.40;;;16.00;76.40;;;;;;10447227;28;20520;-59
2023/01/06 03:18:47;;;;;;;2.05;1.17;;;16.00;76.40;;;;;;10390473;28;20053;-59
2023/01/06 03:23:48;;;;;;;1.40;0.90;;;16.00;76.30;;;;;;10429982;28;20052;-57
2023/01/06 03:28:49;;;;;;;2.08;1.02;;;16.00;76.30;;;;;;10455024;28;20063;-58
2023/01/06 03:34:12;;;;;;;2.47;1.30;;;15.90;76.20;;;;;;10429621;28;20532;-60
2023/01/06 03:39:49;;;;;;;1.88;1.38;;;15.90;76.20;;;;;;10447511;28;20033;-60
2023/01/06 03:45:11;;;;;;;3.38;1.70;;;15.90;76.10;;;;;;10431094;28;20044;-59
2023/01/06 03:50:23;;;;;;;2.22;1.30;;;16.00;76.20;;;;;;10431342;28;20051;-59
2023/01/06 03:55:32;;;;;;;1.27;0.80;;;15.90;76.20;;;;;;10445637;28;20021;-60
2023/01/06 04:00:36;;;;;;;2.17;1.10;;;15.90;76.10;;;;;;10429608;28;20037;-57
2023/01/06 04:05:37;;;;;;;3.88;1.15;;;15.90;76.10;;;;;;10446281;28;20021;-60
2023/01/06 04:10:38;;;;;;;2.28;1.15;;;15.90;76.10;;;;;;10445045;28;20483;-59
2023/01/06 04:15:38;;;;;;;2.97;1.00;;;15.90;76.10;;;;;;10445474;28;20025;-59
2023/01/06 04:20:39;;;;;;;2.63;1.13;;;15.90;76.00;;;;;;10444902;28;20388;-59
2023/01/06 04:25:39;;;;;;;1.75;1.20;;;15.90;76.00;;;;;;10428462;28;20110;-60
2023/01/06 04:30:40;;;;;;;1.60;0.98;;;15.90;76.00;;;;;;10446195;28;20549;-60
2023/01/06 04:35:42;;;;;;;2.67;1.58;;;15.90;75.90;;;;;;10444639;28;20120;-59
2023/01/06 04:40:43;;;;;;;2.10;0.90;;;15.90;75.90;;;;;;10444641;28;20452;-59
2023/01/06 04:45:44;;;;;;;1.35;0.88;;;15.90;75.80;;;;;;10440787;28;20017;-59
2023/01/06 04:50:44;;;;;;;1.75;1.00;;;15.90;75.70;;;;;;10421889;28;20017;-60
2023/01/06 04:55:45;;;;;;;2.00;1.30;;;15.90;75.70;;;;;;10453763;28;20100;-59
2023/01/06 05:00:46;;;;;;;1.83;0.98;;;15.90;75.70;;;;;;10452490;28;20597;-60
2023/01/06 05:05:46;;;;;;;2.08;1.27;;;15.90;75.70;;;;;;10452293;28;20089;-60
2023/01/06 05:10:47;;;;;;;1.30;1.00;;;15.90;75.70;;;;;;10453747;28;20115;-59
2023/01/06 05:15:48;;;;;;;1.10;0.77;;;15.90;75.70;;;;;;10451117;28;20013;-59
2023/01/06 05:20:53;;;;;;;1.40;0.90;;;15.90;75.60;;;;;;10449888;28;20068;-58
2023/01/06 05:25:54;;;;;;;0.80;0.55;;;15.90;75.60;;;;;;10433315;28;20395;-59
2023/01/06 05:31:03;;;;;;;1.55;1.08;;;15.90;75.60;;;;;;10449787;28;20029;-59
2023/01/06 05:36:16;;;;;;;2.22;0.93;;;15.90;75.50;;;;;;10448029;28;20029;-59
2023/01/06 05:41:17;;;;;;;2.15;0.70;;;15.90;75.50;;;;;;10450761;28;20041;-57
2023/01/06 05:46:17;;;;;;;1.10;0.73;;;15.90;75.50;;;;;;10451522;28;20029;-60
2023/01/06 05:51:18;;;;;;;1.08;0.80;;;15.90;75.50;;;;;;10450458;28;20060;-59
2023/01/06 05:56:21;;;;;;;1.67;0.90;;;15.90;75.50;;;;;;10453975;28;20028;-60
2023/01/06 06:01:29;;;;;;;1.38;0.70;;;15.90;75.50;;;;;;10441136;28;20031;-58
2023/01/06 06:06:30;;;;;;;2.20;0.83;;;15.90;75.40;;;;;;10459632;28;20111;-59
2023/01/06 06:11:31;;;;;;;1.08;0.80;;;15.90;75.40;;;;;;10450265;28;20029;-60
2023/01/06 06:16:31;;;;;;;1.38;0.75;;;15.80;75.30;;;;;;10457651;28;20452;-60
2023/01/06 06:21:32;;;;;;;3.17;0.98;;;15.80;75.30;;;;;;10467126;28;20094;-63
2023/01/06 06:26:33;;;;;;;3.45;1.17;;;15.90;75.30;;;;;;10468403;28;20104;-62
2023/01/06 06:31:34;;;;;;;6.70;2.88;;;16.00;76.10;;;;;;10460781;28;20025;-64
2023/01/06 06:36:35;;;;;;;4.60;3.70;;;16.10;76.30;;;;;;10450164;28;20060;-64
2023/01/06 06:41:35;;;;;;;12.50;11.15;;;16.20;76.60;;;;;;10445108;28;20083;-60
2023/01/06 06:46:36;;;;;;;9.73;8.93;;;16.30;78.20;;;;;;10444639;28;20017;-63
2023/01/06 06:51:37;;;;;;;9.50;8.70;;;16.40;77.70;;;;;;10444302;28;20104;-62
2023/01/06 06:56:37;;;;;;;10.25;8.80;;;16.50;77.90;;;;;;10447466;28;20124;-63
2023/01/06 07:01:38;;;;;;;10.63;6.32;;;16.50;78.40;;;;;;10444626;28;20107;-65
2023/01/06 07:06:39;;;;;;;10.45;7.90;;;16.30;76.50;;;;;;10441152;28;21063;-66
2023/01/06 07:11:39;;;;;;;15.77;7.50;;;16.20;77.20;;;;;;10384201;28;20034;-63
2023/01/06 07:16:40;;;;;;;18.77;7.88;;;16.20;77.30;;;;;;10393973;28;20108;-65
2023/01/06 07:21:41;;;;;;;15.98;7.80;;;16.20;77.50;;;;;;10414453;28;20048;-64
2023/01/06 07:26:42;;;;;;;18.77;8.55;;;16.20;77.50;;;;;;10402401;28;20114;-62
2023/01/06 07:31:43;;;;;;;16.33;8.50;;;16.10;77.30;;;;;;10380065;28;20579;-61
2023/01/06 07:36:45;;;;;;;16.23;8.35;;;16.10;78.00;;;;;;10395062;28;20026;-61
2023/01/06 07:41:45;;;;;;;12.20;7.85;;;16.20;77.50;;;;;;10422056;28;20037;-61
2023/01/06 07:46:46;;;;;;;17.50;8.65;;;16.20;77.50;;;;;;10391742;28;20022;-60
2023/01/06 07:51:47;;;;;;;13.43;7.85;;;16.20;77.60;;;;;;10402374;28;20106;-61
2023/01/06 07:56:47;;;;;;;19.15;8.45;;;16.20;77.50;;;;;;10392293;28;20491;-62
2023/01/06 08:01:48;;;;;;;12.05;7.72;;;16.20;77.40;;;;;;10406845;28;20133;-62
2023/01/06 08:06:48;;;;;;;12.27;8.10;;;16.10;77.30;;;;;;10403416;28;20022;-62
2023/01/06 08:11:49;;;;;;;9.32;7.55;;;16.10;77.30;;;;;;10384422;28;20108;-61
2023/01/06 08:16:50;;;;;;;10.60;7.43;;;16.10;77.20;;;;;;10373924;28;20025;-60
2023/01/06 08:21:50;;;;;;;10.20;6.65;;;16.00;77.00;;;;;;10371512;28;20595;-61
2023/01/06 08:26:52;;;;;;;8.43;6.78;;;16.00;77.10;;;;;;10393967;28;20109;-61
2023/01/06 08:31:54;;;;;;;10.07;6.55;;;16.00;77.00;;;;;;10386472;28;20041;-61
2023/01/06 08:36:55;;;;;;;12.95;6.75;;;16.00;77.30;;;;;;10388446;28;20030;-60
2023/01/06 08:41:55;;;;;;;9.07;6.60;;;16.00;77.40;;;;;;10403408;28;20040;-60
2023/01/06 08:46:56;;;;;;;16.23;6.55;;;16.00;77.40;;;;;;10397054;28;20022;-61
2023/01/06 08:51:57;;;;;;;12.75;6.72;;;16.00;77.10;;;;;;10386774;28;20038;-62
2023/01/06 08:56:57;;;;;;;26.27;6.82;;;16.10;77.20;;;;;;10409361;28;20022;-62
2023/01/06 09:01:58;;;;;;;20.42;6.75;;;16.10;76.90;;;;;;10405967;28;20061;-62
2023/01/06 09:06:59;;;;;;;36.75;7.32;;;16.10;77.10;;;;;;10389262;28;20495;-63
2023/01/06 09:11:59;;;;;;;21.77;6.75;;;16.10;77.20;;;;;;10401917;28;20474;-62
2023/01/06 09:17:00;;;;;;;23.80;7.13;;;16.20;77.30;;;;;;10418627;28;20480;-61
2023/01/06 09:22:01;;;;;;;23.10;5.53;;;16.30;77.30;;;;;;10388856;28;20049;-63
2023/01/06 09:27:01;;;;;;;19.58;7.20;;;16.20;77.30;;;;;;10411566;28;20025;-60
2023/01/06 09:32:02;;;;;;;21.33;5.50;;;16.20;77.20;;;;;;10399995;28;20044;-59
2023/01/06 09:37:03;;;;;;;15.05;5.50;;;16.30;77.00;;;;;;10391575;28;20014;-61
2023/01/06 09:42:45;;;;;;;16.38;5.25;;;16.20;77.20;;;;;;10432796;28;20264;-62
2023/01/06 09:47:54;;;;;;;15.55;5.10;;;16.20;77.20;;;;;;10403954;28;20732;-61
2023/01/06 09:53:16;;;;;;;12.30;5.13;;;16.20;77.20;;;;;;10403499;28;20021;-61
2023/01/06 09:58:23;;;;;;;16.15;4.28;;;16.30;77.10;;;;;;10404468;28;20095;-58
2023/01/06 10:03:27;;;;;;;17.90;4.35;;;16.20;77.00;;;;;;10403324;28;20029;-60
2023/01/06 10:09:03;;;;;;;12.88;4.30;;;16.30;77.10;;;;;;10413689;28;20014;-63
2023/01/06 10:14:23;;;;;;;17.48;4.95;;;16.40;77.00;;;;;;10420376;28;20021;-61
2023/01/06 10:19:47;;;;;;;35.67;6.73;;;16.50;76.80;;;;;;10407245;28;20029;-61
2023/01/06 10:25:02;;;;;;;19.65;5.50;;;16.50;76.60;;;;;;10409777;28;20835;-59
2023/01/06 10:30:32;;;;;;;16.88;3.92;;;16.50;76.10;;;;;;10420061;28;20419;-63
2023/01/06 10:35:35;;;;;;;20.90;3.38;;;16.60;75.90;;;;;;10409329;28;20384;-63
2023/01/06 10:40:36;;;;;;;15.95;3.25;;;16.60;75.60;;;;;;10420213;28;20037;-64
2023/01/06 10:45:45;;;;;;;15.02;2.80;;;16.60;75.10;;;;;;10404203;28;20684;-64
2023/01/06 10:50:47;;;;;;;8.75;2.78;;;16.60;74.80;;;;;;10407180;28;20049;-64
2023/01/06 10:56:00;;;;;;;5.45;1.80;;;16.70;74.70;;;;;;10407088;28;20052;-64
2023/01/06 11:01:09;;;;;;;7.25;2.35;;;16.70;74.40;;;;;;10411468;28;20116;-63
2023/01/06 11:06:29;;;;;;;8.23;2.65;;;16.70;74.10;;;;;;10407842;28;20028;-63
2023/01/06 11:11:30;;;;;;;4.47;1.25;;;16.80;75.00;;;;;;10407956;28;20045;-63
2023/01/06 11:16:34;;;;;;;7.00;2.40;;;16.90;75.80;;;;;;10422985;28;20064;-62
2023/01/06 11:21:45;;;;;;;10.43;1.55;;;16.80;73.80;;;;;;10406068;28;20129;-62
2023/01/06 11:26:52;;;;;;;10.95;2.70;;;16.80;74.40;;;;;;10412704;28;20020;-64
2023/01/06 11:31:54;;;;;;;8.32;2.00;;;16.80;74.70;;;;;;10407396;28;20021;-64
2023/01/06 11:36:55;;;;;;;9.50;2.10;;;16.80;75.00;;;;;;10405883;28;20373;-63
2023/01/06 11:42:11;;;;;;;7.85;2.28;;;16.80;75.10;;;;;;10389083;28;20445;-66
2023/01/06 11:47:17;;;;;;;9.00;2.60;;;16.80;75.30;;;;;;10405464;28;20017;-63
2023/01/06 11:52:30;;;;;;;13.05;2.10;;;16.80;75.40;;;;;;10403213;28;20061;-60
2023/01/06 11:57:48;;;;;;;11.27;2.13;;;16.80;75.90;;;;;;10405416;28;20036;-60
2023/01/06 12:02:54;;;;;;;17.70;3.85;;;16.80;75.80;;;;;;10418624;28;20032;-61
2023/01/06 12:07:58;;;;;;;13.40;2.42;;;16.70;75.70;;;;;;10403268;28;20017;-60
2023/01/06 12:12:59;;;;;;;8.25;2.10;;;16.70;76.00;;;;;;10397319;28;20013;-60
2023/01/06 12:18:17;;;;;;;8.57;2.88;;;16.60;75.70;;;;;;10415796;28;20508;-58
2023/01/06 12:23:30;;;;;;;7.82;2.58;;;16.70;75.60;;;;;;10382869;28;20041;-61
2023/01/06 12:28:40;;;;;;;5.40;2.08;;;16.70;75.40;;;;;;10419243;28;20021;-59
2023/01/06 12:34:22;;;;;;;6.45;2.28;;;16.70;75.30;;;;;;10401983;28;20030;-58
2023/01/06 12:39:44;;;;;;;5.55;1.67;;;16.70;75.40;;;;;;10402923;28;20112;-61
2023/01/06 12:44:59;;;;;;;5.28;1.55;;;16.70;75.40;;;;;;10389389;28;20061;-61
2023/01/06 12:50:36;;;;;;;6.97;2.30;;;16.60;75.40;;;;;;10402441;28;20025;-60
2023/01/06 12:56:10;;;;;;;7.03;2.72;;;16.60;75.30;;;;;;10418097;28;20020;-61
2023/01/06 13:01:27;;;;;;;4.80;1.30;;;16.60;75.30;;;;;;10402590;28;20034;-59
2023/01/06 13:06:58;;;;;;;5.93;1.10;;;16.60;75.30;;;;;;10408440;28;20013;-58
2023/01/06 13:12:12;;;;;;;4.47;1.33;;;16.50;75.20;;;;;;10411552;28;20457;-61
2023/01/06 13:17:31;;;;;;;3.75;1.65;;;16.50;75.20;;;;;;10413492;28;20101;-60
2023/01/06 13:22:50;;;;;;;3.22;0.90;;;16.50;75.20;;;;;;10408656;28;20095;-60
2023/01/06 13:28:20;;;;;;;5.10;1.20;;;16.50;75.20;;;;;;10415610;28;20107;-60
2023/01/06 13:33:47;;;;;;;;;;;16.50;75.20;;;;;;10408530;28;20018;-60
2023/01/06 13:38:58;;;;;;;4.85;2.25;;;16.50;75.20;;;;;;10422263;28;19901;-60
2023/01/06 13:44:00;;;;;;;4.00;1.00;;;16.40;75.10;;;;;;10423730;28;20053;-61
2023/01/06 13:49:04;;;;;;;2.55;1.02;;;16.40;75.20;;;;;;10407231;28;20022;-60
2023/01/06 13:54:04;;;;;;;3.00;0.80;;;16.40;75.10;;;;;;10407898;28;20021;-58
2023/01/06 13:59:21;;;;;;;4.15;0.90;;;16.40;75.20;;;;;;10407076;28;20025;-60
2023/01/06 14:04:43;;;;;;;2.10;1.02;;;16.40;75.30;;;;;;10408206;28;20107;-60
2023/01/06 14:09:48;;;;;;;3.38;1.17;;;16.30;75.30;;;;;;10423368;28;20117;-59
2023/01/06 14:15:01;;;;;;;2.72;0.70;;;16.30;75.30;;;;;;10407526;28;20017;-61
2023/01/06 14:20:03;;;;;;;3.40;1.73;;;16.30;75.30;;;;;;10390093;28;20033;-59
2023/01/06 14:25:07;;;;;;;3.25;0.85;;;16.30;75.30;;;;;;10412893;28;20372;-60
2023/01/06 14:30:28;;;;;;;1.63;0.63;;;16.20;75.20;;;;;;10406001;28;20469;-59
2023/01/06 14:35:41;;;;;;;3.50;1.00;;;16.30;75.30;;;;;;10438661;28;20026;-61
2023/01/06 14:41:00;;;;;;;2.63;0.70;;;16.30;75.30;;;;;;10407067;28;20028;-60
2023/01/06 14:46:11;;;;;;;2.67;0.80;;;16.20;75.30;;;;;;10406005;28;20009;-59
2023/01/06 14:51:17;;;;;;;2.50;0.75;;;16.20;75.30;;;;;;10405253;28;20457;-61
2023/01/06 14:56:22;;;;;;;2.78;0.60;;;16.20;75.30;;;;;;10405262;28;20021;-59
2023/01/06 15:01:33;;;;;;;1.70;0.65;;;16.20;75.30;;;;;;10404786;28;20045;-61
2023/01/06 15:06:34;;;;;;;2.15;0.70;;;16.20;75.30;;;;;;10405016;28;20014;-59
2023/01/06 15:11:41;;;;;;;1.40;0.60;;;16.20;75.30;;;;;;10404091;28;20032;-59
2023/01/06 15:16:44;;;;;;;2.28;0.88;;;16.10;75.20;;;;;;10404618;28;20101;-58
2023/01/06 15:21:47;;;;;;;1.88;0.68;;;16.10;75.20;;;;;;10403560;28;20056;-60
2023/01/06 15:26:51;;;;;;;5.00;1.25;;;16.10;75.20;;;;;;10410528;28;20490;-60
2023/01/06 15:31:53;;;;;;;1.58;0.55;;;16.10;75.20;;;;;;10403578;28;20022;-58
2023/01/06 15:36:55;;;;;;;1.30;0.63;;;16.10;75.20;;;;;;10403529;28;20026;-61
2023/01/06 15:41:57;;;;;;;1.42;0.80;;;16.10;75.20;;;;;;10403104;28;20025;-59
2023/01/06 15:47:10;;;;;;;1.42;0.98;;;16.10;75.20;;;;;;10402945;28;20017;-60
2023/01/06 15:52:23;;;;;;;1.95;0.55;;;16.10;75.20;;;;;;10403918;28;20049;-60
2023/01/06 15:57:26;;;;;;;2.88;0.90;;;16.10;75.20;;;;;;10418781;28;20493;-60
2023/01/06 16:02:30;;;;;;;5.22;1.02;;;16.10;75.30;;;;;;10402549;28;20116;-61
2023/01/06 16:07:39;;;;;;;2.83;0.70;;;16.10;75.20;;;;;;10386127;28;20034;-59
2023/01/06 16:12:40;;;;;;;2.63;0.80;;;16.00;75.20;;;;;;10402233;28;20116;-60
2023/01/06 16:17:45;;;;;;;2.33;1.70;;;16.00;75.20;;;;;;10404324;28;20071;-60
2023/01/06 16:22:50;;;;;;;1.85;0.65;;;16.00;75.20;;;;;;10400571;28;20099;-60
2023/01/06 16:27:54;;;;;;;2.13;0.50;;;16.00;75.20;;;;;;10406786;28;20097;-59
2023/01/06 16:32:59;;;;;;;2.10;0.60;;;16.00;75.20;;;;;;10400115;28;20035;-60
2023/01/06 16:38:00;;;;;;;1.42;0.73;;;16.00;75.20;;;;;;10401892;28;20025;-60
2023/01/06 16:43:01;;;;;;;1.30;0.57;;;16.00;75.20;;;;;;10408809;28;20036;-58
2023/01/06 16:48:02;;;;;;;1.63;0.50;;;16.00;75.20;;;;;;10410565;28;20025;-60
2023/01/06 16:53:09;;;;;;;1.58;0.68;;;16.00;75.20;;;;;;10408679;28;20049;-60
2023/01/06 16:58:22;;;;;;;1.88;0.57;;;16.00;75.20;;;;;;10424853;28;20079;-59
2023/01/06 17:03:28;;;;;;;1.50;0.85;;;15.90;75.10;;;;;;10407750;28;20034;-60
2023/01/06 17:08:31;;;;;;;0.98;0.65;;;16.00;75.10;;;;;;10391861;28;20037;-57
2023/01/06 17:13:34;;;;;;;1.63;0.68;;;16.00;75.10;;;;;;10407830;28;20013;-60
2023/01/06 17:18:49;;;;;;;1.60;0.77;;;16.00;75.10;;;;;;10423302;28;20017;-60
2023/01/06 17:24:01;;;;;;;2.25;0.63;;;15.90;75.00;;;;;;10406847;28;20461;-59
2023/01/06 17:29:13;;;;;;;1.60;0.60;;;15.90;75.00;;;;;;10414871;28;20022;-60
2023/01/06 17:34:22;;;;;;;1.58;0.60;;;15.90;75.00;;;;;;10408100;28;20025;-61
2023/01/06 17:39:39;;;;;;;2.22;0.90;;;15.90;75.10;;;;;;10408046;28;20368;-60
2023/01/06 17:44:47;;;;;;;1.77;1.08;;;15.90;75.00;;;;;;10406119;28;20374;-61
2023/01/06 17:49:57;;;;;;;1.40;0.50;;;15.90;75.00;;;;;;10405173;28;20036;-59
2023/01/06 17:55:44;;;;;;;1.15;0.57;;;15.90;75.00;;;;;;10406986;28;20029;-60
2023/01/06 18:00:45;;;;;;;1.85;0.60;;;15.90;75.00;;;;;;10408605;28;20025;-58
2023/01/06 18:06:00;;;;;;;1.60;0.70;;;15.90;75.00;;;;;;10389583;28;20024;-61
2023/01/06 18:11:03;;;;;;;1.60;0.88;;;15.90;75.00;;;;;;10405229;28;20152;-59
2023/01/06 18:16:27;;;;;;;2.58;1.38;;;15.90;75.00;;;;;;10416939;28;20052;-59
2023/01/06 18:21:37;;;;;;;1.25;0.50;;;15.90;75.00;;;;;;10404463;28;20670;-60
2023/01/06 18:26:46;;;;;;;1.55;0.47;;;15.90;75.00;;;;;;10411818;28;20013;-58
2023/01/06 18:31:50;;;;;;;1.77;1.02;;;15.90;75.00;;;;;;10404454;28;20014;-59
2023/01/06 18:36:52;;;;;;;0.90;0.60;;;15.90;75.00;;;;;;10404782;28;20109;-61
2023/01/06 18:42:25;;;;;;;3.28;0.93;;;15.90;75.00;;;;;;10404305;28;20483;-61
2023/01/06 18:47:28;;;;;;;1.15;0.65;;;15.80;74.90;;;;;;10403075;28;20388;-60
2023/01/06 18:52:39;;;;;;;1.58;0.80;;;15.80;74.90;;;;;;10405253;28;20108;-60
2023/01/06 18:57:44;;;;;;;1.65;0.88;;;15.80;75.00;;;;;;10403093;28;20083;-60
2023/01/06 19:02:50;;;;;;;1.58;0.77;;;15.80;74.90;;;;;;10418324;28;20029;-60
2023/01/06 19:07:54;;;;;;;1.13;0.52;;;15.80;74.80;;;;;;10403340;28;20014;-60
2023/01/06 19:12:59;;;;;;;1.63;0.57;;;15.80;74.90;;;;;;10403065;28;20025;-59
2023/01/06 19:17:59;;;;;;;1.35;0.68;;;15.90;74.90;;;;;;10419047;28;20033;-61
2023/01/06 19:23:30;;;;;;;1.08;0.68;;;15.80;74.80;;;;;;10386195;28;20501;-60
2023/01/06 19:28:34;;;;;;;1.23;0.60;;;15.80;74.80;;;;;;10410579;28;20037;-59
2023/01/06 19:33:59;;;;;;;1.85;0.88;;;15.80;74.80;;;;;;10402039;28;20426;-60
2023/01/06 19:39:26;;;;;;;1.23;0.82;;;15.90;74.90;;;;;;10401870;28;20124;-59
2023/01/06 19:44:32;;;;;;;3.08;0.88;;;15.80;74.80;;;;;;10400777;28;20041;-60
2023/01/06 19:49:38;;;;;;;1.48;0.65;;;15.80;74.80;;;;;;10401430;28;20028;-58
2023/01/06 19:54:40;;;;;;;0.95;0.77;;;15.80;74.80;;;;;;10417434;28;20032;-59
2023/01/06 19:59:41;;;;;;;1.13;0.60;;;15.80;74.80;;;;;;10401155;28;20504;-60
2023/01/06 20:04:41;;;;;;;7.38;0.90;;;15.80;74.80;;;;;;10384588;28;20088;-58
2023/01/06 20:09:42;;;;;;;1.35;0.50;;;15.80;74.80;;;;;;10402751;28;20097;-60
2023/01/06 20:14:43;;;;;;;1.50;0.57;;;15.80;74.80;;;;;;10400566;28;20034;-61
2023/01/06 20:19:43;;;;;;;3.17;1.02;;;15.80;74.80;;;;;;10400570;28;20105;-58
2023/01/06 20:24:44;;;;;;;1.30;0.70;;;15.80;74.80;;;;;;10406319;28;20447;-60
2023/01/06 20:29:46;;;;;;;2.42;1.25;;;15.80;74.80;;;;;;10417958;28;20595;-59
2023/01/06 20:34:46;;;;;;;2.45;1.10;;;15.80;74.80;;;;;;10419952;28;20105;-60
2023/01/06 20:39:48;;;;;;;1.48;0.70;;;15.70;74.80;;;;;;10406578;28;20099;-62
2023/01/06 20:44:48;;;;;;;1.65;0.88;;;15.80;74.50;;;;;;10401857;28;20230;-62
2023/01/06 20:49:49;;;;;;;1.25;0.80;;;15.80;74.60;;;;;;10401665;28;20044;-62
2023/01/06 20:54:50;;;;;;;4.47;0.93;;;15.80;74.60;;;;;;10400221;28;20628;-61
2023/01/06 20:59:51;;;;;;;2.15;0.57;;;15.80;74.60;;;;;;10401208;28;20120;-59
2023/01/06 21:04:51;;;;;;;1.45;0.70;;;15.80;74.70;;;;;;10401231;28;20431;-63
2023/01/06 21:09:52;;;;;;;1.33;0.73;;;15.80;74.70;;;;;;10402869;28;20115;-61
2023/01/06 21:14:53;;;;;;;1.05;0.60;;;15.80;74.80;;;;;;10404482;28;20069;-61
2023/01/06 21:19:54;;;;;;;1.20;0.70;;;15.80;74.80;;;;;;10403044;28;20100;-63
2023/01/06 21:24:54;;;;;;;2.95;1.15;;;15.80;74.80;;;;;;10411218;28;20495;-61
2023/01/06 21:29:55;;;;;;;1.88;0.68;;;15.80;74.90;;;;;;10427658;28;20044;-63
2023/01/06 21:34:57;;;;;;;1.85;0.70;;;15.80;74.90;;;;;;10411870;28;20160;-64
2023/01/06 21:39:58;;;;;;;1.70;0.77;;;15.80;74.90;;;;;;10426744;28;20040;-63
2023/01/06 21:44:58;;;;;;;1.90;1.10;;;15.80;74.80;;;;;;10410065;28;20036;-63
2023/01/06 21:49:59;;;;;;;2.28;0.80;;;15.80;74.90;;;;;;10410864;28;20104;-62
2023/01/06 21:55:00;;;;;;;2.20;0.73;;;15.80;74.80;;;;;;10409914;28;20057;-62
2023/01/06 22:00:03;;;;;;;1.63;0.77;;;15.80;74.80;;;;;;10410734;28;20022;-63
2023/01/06 22:05:05;;;;;;;2.85;0.77;;;15.80;74.80;;;;;;10409542;28;20560;-61
2023/01/06 22:10:09;;;;;;;1.25;0.63;;;15.80;74.90;;;;;;10408846;28;20054;-62
2023/01/06 22:15:10;;;;;;;1.27;0.77;;;15.80;75.00;;;;;;10409368;28;20021;-60
2023/01/06 22:20:12;;;;;;;2.13;1.15;;;15.70;75.40;;;;;;10408652;28;20049;-63
2023/01/06 22:25:13;;;;;;;1.15;0.80;;;15.70;74.90;;;;;;10415392;28;20077;-60
2023/01/06 22:30:13;;;;;;;1.30;0.82;;;15.70;74.90;;;;;;10410015;28;20026;-63
2023/01/06 22:35:16;;;;;;;2.13;0.70;;;15.80;75.00;;;;;;10408186;28;20033;-59
2023/01/06 22:40:17;;;;;;;1.38;0.70;;;15.80;75.00;;;;;;10390933;28;20010;-64
2023/01/06 22:45:17;;;;;;;1.73;0.80;;;15.70;74.90;;;;;;10423328;28;20033;-63
2023/01/06 22:50:18;;;;;;;1.00;0.80;;;15.70;74.80;;;;;;10390957;28;20021;-62
2023/01/06 22:55:19;;;;;;;1.23;0.85;;;15.70;74.90;;;;;;10407375;28;20033;-63
2023/01/06 23:00:19;;;;;;;1.83;0.80;;;15.70;74.90;;;;;;10423487;28;20535;-61
2023/01/06 23:05:20;;;;;;;1.95;0.90;;;15.70;74.90;;;;;;10408186;28;20400;-63
2023/01/06 23:10:21;;;;;;;1.73;0.70;;;15.70;74.90;;;;;;10407004;28;20045;-62
2023/01/06 23:15:21;;;;;;;1.15;0.80;;;15.80;75.00;;;;;;10396332;28;20033;-63
2023/01/06 23:20:22;;;;;;;1.55;0.70;;;15.70;75.00;;;;;;10407593;28;20145;-63
2023/01/06 23:25:23;;;;;;;1.20;0.93;;;15.70;75.00;;;;;;10413634;28;20029;-62
2023/01/06 23:30:24;;;;;;;1.30;0.57;;;15.70;75.00;;;;;;10405959;28;20025;-62
2023/01/06 23:35:24;;;;;;;3.00;0.95;;;15.70;75.00;;;;;;10422459;28;20112;-61
2023/01/06 23:40:25;;;;;;;1.23;0.60;;;15.70;75.00;;;;;;10422043;28;20128;-61
2023/01/06 23:45:25;;;;;;;1.95;0.90;;;15.70;75.00;;;;;;10405511;28;20125;-59
2023/01/06 23:50:26;;;;;;;1.38;0.57;;;15.70;75.00;;;;;;10406131;28;20064;-63
2023/01/06 23:55:27;;;;;;;1.63;0.60;;;15.70;75.00;;;;;;10404920;28;20030;-63
